sensor_id;sensor_type;location;lat;lon;timestamp;pressure;altitude;pressure_sealevel;temperature;humidity
59757;BME280;45631;51.962;5.974;2023-12-07T00:00:25;101797.34;;;-1.94;100.00
59757;BME280;45631;51.962;5.974;2023-12-07T00:02:53;101799.06;;;-1.94;100.00
59757;BME280;45631;51.962;5.974;2023-12-07T00:05:21;101796.50;;;-1.96;100.00
59757;BME280;45631;51.962;5.974;2023-12-07T00:07:49;101798.19;;;-1.98;100.00
59757;BME280;45631;51.962;5.974;2023-12-07T00:10:20;101788.72;;;-2.02;100.00
59757;BME280;45631;51.962;5.974;2023-12-07T00:12:49;101792.16;;;-2.05;100.00
59757;BME280;45631;51.962;5.974;2023-12-07T00:15:19;101796.47;;;-2.05;100.00
59757;BME280;45631;51.962;5.974;2023-12-07T00:17:48;101790.47;;;-2.07;100.00
59757;BME280;45631;51.962;5.974;2023-12-07T00:20:19;101789.59;;;-2.09;100.00
59757;BME280;45631;51.962;5.974;2023-12-07T00:22:47;101791.31;;;-2.10;100.00
59757;BME280;45631;51.962;5.974;2023-12-07T00:25:15;101791.31;;;-2.10;100.00
59757;BME280;45631;51.962;5.974;2023-12-07T00:27:43;101798.16;;;-2.09;100.00
59757;BME280;45631;51.962;5.974;2023-12-07T00:30:13;101791.28;;;-2.13;100.00
59757;BME280;45631;51.962;5.974;2023-12-07T00:32:41;101793.00;;;-2.16;100.00
59757;BME280;45631;51.962;5.974;2023-12-07T00:35:12;101793.00;;;-2.16;100.00
59757;BME280;45631;51.962;5.974;2023-12-07T00:37:41;101793.88;;;-2.16;100.00
59757;BME280;45631;51.962;5.974;2023-12-07T00:40:09;101799.88;;;-2.18;100.00
59757;BME280;45631;51.962;5.974;2023-12-07T00:42:39;101793.84;;;-2.21;100.00
59757;BME280;45631;51.962;5.974;2023-12-07T00:45:11;101796.44;;;-2.22;100.00
59757;BME280;45631;51.962;5.974;2023-12-07T00:47:40;101802.44;;;-2.22;100.00
59757;BME280;45631;51.962;5.974;2023-12-07T00:50:13;101804.16;;;-2.19;100.00
59757;BME280;45631;51.962;5.974;2023-12-07T00:52:42;101801.59;;;-2.17;100.00
59757;BME280;45631;51.962;5.974;2023-12-07T00:55:10;101799.00;;;-2.17;100.00
59757;BME280;45631;51.962;5.974;2023-12-07T00:57:41;101794.72;;;-2.18;100.00
59757;BME280;45631;51.962;5.974;2023-12-07T01:00:09;101796.44;;;-2.22;100.00
59757;BME280;45631;51.962;5.974;2023-12-07T01:02:38;101795.56;;;-2.23;100.00
59757;BME280;45631;51.962;5.974;2023-12-07T01:05:06;101799.88;;;-2.25;100.00
59757;BME280;45631;51.962;5.974;2023-12-07T01:07:39;101801.56;;;-2.27;100.00
59757;BME280;45631;51.962;5.974;2023-12-07T01:10:08;101805.88;;;-2.27;100.00
59757;BME280;45631;51.962;5.974;2023-12-07T01:12:36;101811.00;;;-2.30;100.00
59757;BME280;45631;51.962;5.974;2023-12-07T01:15:05;101807.56;;;-2.34;100.00
59757;BME280;45631;51.962;5.974;2023-12-07T01:17:34;101802.41;;;-2.35;100.00
59757;BME280;45631;51.962;5.974;2023-12-07T01:20:03;101800.66;;;-2.38;100.00
59757;BME280;45631;51.962;5.974;2023-12-07T01:22:33;101804.09;;;-2.38;100.00
59757;BME280;45631;51.962;5.974;2023-12-07T01:25:04;101800.66;;;-2.38;100.00
59757;BME280;45631;51.962;5.974;2023-12-07T01:27:32;101798.94;;;-2.41;100.00
59757;BME280;45631;51.962;5.974;2023-12-07T01:30:01;101805.81;;;-2.41;100.00
59757;BME280;45631;51.962;5.974;2023-12-07T01:32:30;101804.09;;;-2.42;100.00
59757;BME280;45631;51.962;5.974;2023-12-07T01:34:58;101796.34;;;-2.41;100.00
59757;BME280;45631;51.962;5.974;2023-12-07T01:37:26;101806.66;;;-2.44;100.00
59757;BME280;45631;51.962;5.974;2023-12-07T01:39:56;101804.03;;;-2.47;100.00
59757;BME280;45631;51.962;5.974;2023-12-07T01:42:26;101801.47;;;-2.48;100.00
59757;BME280;45631;51.962;5.974;2023-12-07T01:44:54;101806.63;;;-2.51;100.00
59757;BME280;45631;51.962;5.974;2023-12-07T01:47:24;101810.91;;;-2.52;100.00
59757;BME280;45631;51.962;5.974;2023-12-07T01:49:52;101810.91;;;-2.53;100.00
59757;BME280;45631;51.962;5.974;2023-12-07T01:52:21;101815.19;;;-2.56;100.00
59757;BME280;45631;51.962;5.974;2023-12-07T01:54:53;101828.06;;;-2.54;100.00
59757;BME280;45631;51.962;5.974;2023-12-07T01:57:22;101823.75;;;-2.55;100.00
59757;BME280;45631;51.962;5.974;2023-12-07T01:59:51;101825.50;;;-2.56;100.00
59757;BME280;45631;51.962;5.974;2023-12-07T02:02:23;101820.34;;;-2.59;100.00
59757;BME280;45631;51.962;5.974;2023-12-07T02:04:51;101815.19;;;-2.60;100.00
59757;BME280;45631;51.962;5.974;2023-12-07T02:07:20;101816.88;;;-2.61;100.00
59757;BME280;45631;51.962;5.974;2023-12-07T02:09:49;101816.88;;;-2.61;100.00
59757;BME280;45631;51.962;5.974;2023-12-07T02:12:17;101817.75;;;-2.62;100.00
59757;BME280;45631;51.962;5.974;2023-12-07T02:14:46;101818.59;;;-2.61;100.00
59757;BME280;45631;51.962;5.974;2023-12-07T02:17:19;101826.31;;;-2.61;100.00
59757;BME280;45631;51.962;5.974;2023-12-07T02:19:55;101824.59;;;-2.62;100.00
59757;BME280;45631;51.962;5.974;2023-12-07T02:22:29;101822.91;;;-2.62;100.00
59757;BME280;45631;51.962;5.974;2023-12-07T02:25:05;101822.91;;;-2.60;100.00
59757;BME280;45631;51.962;5.974;2023-12-07T02:27:38;101825.47;;;-2.59;100.00
59757;BME280;45631;51.962;5.974;2023-12-07T02:30:07;101817.75;;;-2.57;100.00
59757;BME280;45631;51.962;5.974;2023-12-07T02:32:40;101824.66;;;-2.51;100.00
59757;BME280;45631;51.962;5.974;2023-12-07T02:35:10;101816.06;;;-2.50;100.00
59757;BME280;45631;51.962;5.974;2023-12-07T02:37:42;101810.06;;;-2.49;100.00
59757;BME280;45631;51.962;5.974;2023-12-07T02:40:12;101816.94;;;-2.48;100.00
59757;BME280;45631;51.962;5.974;2023-12-07T02:42:44;101815.22;;;-2.46;100.00
59757;BME280;45631;51.962;5.974;2023-12-07T02:45:12;101807.50;;;-2.45;100.00
59757;BME280;45631;51.962;5.974;2023-12-07T02:47:41;101802.41;;;-2.37;100.00
59757;BME280;45631;51.962;5.974;2023-12-07T02:50:11;101802.34;;;-2.40;100.00
59757;BME280;45631;51.962;5.974;2023-12-07T02:52:40;101802.41;;;-2.37;100.00
59757;BME280;45631;51.962;5.974;2023-12-07T02:55:08;101801.50;;;-2.39;100.00
59757;BME280;45631;51.962;5.974;2023-12-07T02:57:40;101800.66;;;-2.41;100.00
59757;BME280;45631;51.962;5.974;2023-12-07T03:00:10;101802.34;;;-2.42;100.00
59757;BME280;45631;51.962;5.974;2023-12-07T03:02:41;101806.66;;;-2.41;100.00
59757;BME280;45631;51.962;5.974;2023-12-07T03:05:09;101804.09;;;-2.39;100.00
59757;BME280;45631;51.962;5.974;2023-12-07T03:07:37;101807.50;;;-2.40;100.00
59757;BME280;45631;51.962;5.974;2023-12-07T03:10:07;101798.09;;;-2.38;100.00
59757;BME280;45631;51.962;5.974;2023-12-07T03:12:35;101802.41;;;-2.39;100.00
59757;BME280;45631;51.962;5.974;2023-12-07T03:15:04;101804.09;;;-2.38;100.00
59757;BME280;45631;51.962;5.974;2023-12-07T03:17:33;101810.97;;;-2.35;100.00
59757;BME280;45631;51.962;5.974;2023-12-07T03:20:03;101810.13;;;-2.37;100.00
59757;BME280;45631;51.962;5.974;2023-12-07T03:22:32;101813.56;;;-2.35;100.00
59757;BME280;45631;51.962;5.974;2023-12-07T03:25:01;101810.97;;;-2.35;100.00
59757;BME280;45631;51.962;5.974;2023-12-07T03:27:29;101813.56;;;-2.33;100.00
59757;BME280;45631;51.962;5.974;2023-12-07T03:29:57;101817.88;;;-2.32;100.00
59757;BME280;45631;51.962;5.974;2023-12-07T03:32:25;101815.28;;;-2.29;100.00
59757;BME280;45631;51.962;5.974;2023-12-07T03:34:55;101814.44;;;-2.28;100.00
59757;BME280;45631;51.962;5.974;2023-12-07T03:37:23;101812.75;;;-2.26;100.00
59757;BME280;45631;51.962;5.974;2023-12-07T03:39:51;101811.03;;;-2.26;100.00
59757;BME280;45631;51.962;5.974;2023-12-07T03:42:19;101824.78;;;-2.21;100.00
59757;BME280;45631;51.962;5.974;2023-12-07T03:45:08;101815.34;;;-2.18;100.00
59757;BME280;45631;51.962;5.974;2023-12-07T03:47:39;101812.75;;;-2.17;100.00
59757;BME280;45631;51.962;5.974;2023-12-07T03:50:09;101817.94;;;-2.12;100.00
59757;BME280;45631;51.962;5.974;2023-12-07T03:52:37;101812.78;;;-2.12;100.00
59757;BME280;45631;51.962;5.974;2023-12-07T03:55:06;101824.81;;;-2.10;100.00
59757;BME280;45631;51.962;5.974;2023-12-07T03:57:35;101817.94;;;-2.06;100.00
59757;BME280;45631;51.962;5.974;2023-12-07T04:00:03;101829.13;;;-2.02;100.00
59757;BME280;45631;51.962;5.974;2023-12-07T04:02:34;101823.13;;;-2.01;100.00
59757;BME280;45631;51.962;5.974;2023-12-07T04:05:03;101822.25;;;-2.00;100.00
59757;BME280;45631;51.962;5.974;2023-12-07T04:07:32;101824.00;;;-1.96;100.00
59757;BME280;45631;51.962;5.974;2023-12-07T04:10:02;101831.75;;;-1.95;100.00
59757;BME280;45631;51.962;5.974;2023-12-07T04:12:32;101830.00;;;-1.94;100.00
59757;BME280;45631;51.962;5.974;2023-12-07T04:15:00;101820.59;;;-1.91;100.00
59757;BME280;45631;51.962;5.974;2023-12-07T04:17:28;101817.13;;;-1.90;100.00
59757;BME280;45631;51.962;5.974;2023-12-07T04:19:56;101824.00;;;-1.89;100.00
59757;BME280;45631;51.962;5.974;2023-12-07T04:22:25;101826.59;;;-1.87;100.00
59757;BME280;45631;51.962;5.974;2023-12-07T04:24:58;101822.31;;;-1.87;100.00
59757;BME280;45631;51.962;5.974;2023-12-07T04:27:26;101824.88;;;-1.85;100.00
59757;BME280;45631;51.962;5.974;2023-12-07T04:29:54;101823.16;;;-1.84;100.00
59757;BME280;45631;51.962;5.974;2023-12-07T04:32:24;101828.31;;;-1.84;100.00
59757;BME280;45631;51.962;5.974;2023-12-07T04:34:53;101826.63;;;-1.84;100.00
59757;BME280;45631;51.962;5.974;2023-12-07T04:37:21;101829.19;;;-1.82;100.00
59757;BME280;45631;51.962;5.974;2023-12-07T04:39:50;101825.72;;;-1.81;100.00
59757;BME280;45631;51.962;5.974;2023-12-07T04:42:20;101836.06;;;-1.81;100.00
59757;BME280;45631;51.962;5.974;2023-12-07T04:44:49;101840.38;;;-1.80;100.00
59757;BME280;45631;51.962;5.974;2023-12-07T04:47:17;101832.63;;;-1.83;100.00
59757;BME280;45631;51.962;5.974;2023-12-07T04:49:45;101836.94;;;-1.84;100.00
59757;BME280;45631;51.962;5.974;2023-12-07T04:52:14;101838.63;;;-1.86;100.00
59757;BME280;45631;51.962;5.974;2023-12-07T04:54:43;101836.06;;;-1.81;100.00
59757;BME280;45631;51.962;5.974;2023-12-07T04:57:13;101837.78;;;-1.83;100.00
59757;BME280;45631;51.962;5.974;2023-12-07T04:59:42;101836.94;;;-1.82;100.00
59757;BME280;45631;51.962;5.974;2023-12-07T05:02:13;101838.63;;;-1.81;100.00
59757;BME280;45631;51.962;5.974;2023-12-07T05:04:42;101839.50;;;-1.79;100.00
59757;BME280;45631;51.962;5.974;2023-12-07T05:07:11;101840.38;;;-1.76;100.00
59757;BME280;45631;51.962;5.974;2023-12-07T05:09:39;101841.25;;;-1.74;100.00
59757;BME280;45631;51.962;5.974;2023-12-07T05:12:08;101842.97;;;-1.71;100.00
59757;BME280;45631;51.962;5.974;2023-12-07T05:14:36;101840.38;;;-1.70;100.00
59757;BME280;45631;51.962;5.974;2023-12-07T05:17:06;101840.38;;;-1.66;100.00
59757;BME280;45631;51.962;5.974;2023-12-07T05:19:35;101834.38;;;-1.64;100.00
59757;BME280;45631;51.962;5.974;2023-12-07T05:22:03;101836.09;;;-1.63;100.00
59757;BME280;45631;51.962;5.974;2023-12-07T05:24:32;101842.13;;;-1.59;100.00
59757;BME280;45631;51.962;5.974;2023-12-07T05:27:01;101836.13;;;-1.57;100.00
59757;BME280;45631;51.962;5.974;2023-12-07T05:29:30;101828.38;;;-1.55;100.00
59757;BME280;45631;51.962;5.974;2023-12-07T05:31:59;101829.22;;;-1.53;100.00
59757;BME280;45631;51.962;5.974;2023-12-07T05:34:28;101835.25;;;-1.52;100.00
59757;BME280;45631;51.962;5.974;2023-12-07T05:36:56;101828.38;;;-1.49;100.00
59757;BME280;45631;51.962;5.974;2023-12-07T05:39:25;101818.91;;;-1.48;100.00
59757;BME280;45631;51.962;5.974;2023-12-07T05:41:53;101827.50;;;-1.45;100.00
59757;BME280;45631;51.962;5.974;2023-12-07T05:44:21;101831.81;;;-1.42;100.00
59757;BME280;45631;51.962;5.974;2023-12-07T05:46:50;101831.84;;;-1.36;100.00
59757;BME280;45631;51.962;5.974;2023-12-07T05:49:18;101827.53;;;-1.31;100.00
59757;BME280;45631;51.962;5.974;2023-12-07T05:51:48;101835.28;;;-1.29;100.00
59757;BME280;45631;51.962;5.974;2023-12-07T05:54:17;101830.97;;;-1.27;100.00
59757;BME280;45631;51.962;5.974;2023-12-07T05:56:47;101824.09;;;-1.27;100.00
59757;BME280;45631;51.962;5.974;2023-12-07T05:59:15;101819.78;;;-1.26;100.00
59757;BME280;45631;51.962;5.974;2023-12-07T06:01:44;101816.34;;;-1.24;100.00
59757;BME280;45631;51.962;5.974;2023-12-07T06:04:12;101810.31;;;-1.23;100.00
59757;BME280;45631;51.962;5.974;2023-12-07T06:06:40;101817.19;;;-1.20;100.00
59757;BME280;45631;51.962;5.974;2023-12-07T06:09:13;101818.91;;;-1.19;100.00
59757;BME280;45631;51.962;5.974;2023-12-07T06:11:42;101830.94;;;-1.13;100.00
59757;BME280;45631;51.962;5.974;2023-12-07T06:14:10;101823.19;;;-1.15;100.00
59757;BME280;45631;51.962;5.974;2023-12-07T06:16:40;101825.78;;;-1.15;100.00
59757;BME280;45631;51.962;5.974;2023-12-07T06:19:08;101830.94;;;-1.13;100.00
59757;BME280;45631;51.962;5.974;2023-12-07T06:21:57;101829.25;;;-1.14;100.00
59757;BME280;45631;51.962;5.974;2023-12-07T06:24:27;101831.81;;;-1.11;100.00
59757;BME280;45631;51.962;5.974;2023-12-07T06:26:55;101840.44;;;-1.15;100.00
59757;BME280;45631;51.962;5.974;2023-12-07T06:29:24;101833.53;;;-1.15;100.00
59757;BME280;45631;51.962;5.974;2023-12-07T06:31:55;101832.66;;;-1.12;100.00
59757;BME280;45631;51.962;5.974;2023-12-07T06:34:24;101837.84;;;-1.18;100.00
59757;BME280;45631;51.962;5.974;2023-12-07T06:36:52;101830.09;;;-1.22;100.00
59757;BME280;45631;51.962;5.974;2023-12-07T06:39:20;101837.00;;;-1.25;100.00
59757;BME280;45631;51.962;5.974;2023-12-07T06:41:50;101840.44;;;-1.28;100.00
59757;BME280;45631;51.962;5.974;2023-12-07T06:44:18;101841.28;;;-1.29;100.00
59757;BME280;45631;51.962;5.974;2023-12-07T06:46:46;101841.28;;;-1.29;100.00
59757;BME280;45631;51.962;5.974;2023-12-07T06:49:15;101858.50;;;-1.34;100.00
59757;BME280;45631;51.962;5.974;2023-12-07T06:51:44;101850.75;;;-1.36;100.00
59757;BME280;45631;51.962;5.974;2023-12-07T06:54:12;101857.63;;;-1.33;100.00
59757;BME280;45631;51.962;5.974;2023-12-07T06:56:40;101854.22;;;-1.33;100.00
59757;BME280;45631;51.962;5.974;2023-12-07T06:59:10;101841.28;;;-1.38;100.00
59757;BME280;45631;51.962;5.974;2023-12-07T07:01:38;101840.44;;;-1.37;100.00
59757;BME280;45631;51.962;5.974;2023-12-07T07:04:06;101847.28;;;-1.41;100.00
59757;BME280;45631;51.962;5.974;2023-12-07T07:06:35;101853.34;;;-1.40;100.00
59757;BME280;45631;51.962;5.974;2023-12-07T07:09:06;101846.44;;;-1.40;100.00
59757;BME280;45631;51.962;5.974;2023-12-07T07:11:35;101850.75;;;-1.42;100.00
59757;BME280;45631;51.962;5.974;2023-12-07T07:14:03;101856.75;;;-1.37;100.00
59757;BME280;45631;51.962;5.974;2023-12-07T07:16:33;101854.19;;;-1.41;100.00
59757;BME280;45631;51.962;5.974;2023-12-07T07:19:02;101857.63;;;-1.34;100.00
59757;BME280;45631;51.962;5.974;2023-12-07T07:21:36;101851.59;;;-1.38;100.00
59757;BME280;45631;51.962;5.974;2023-12-07T07:24:05;101855.03;;;-1.30;100.00
59757;BME280;45631;51.962;5.974;2023-12-07T07:26:35;101848.16;;;-1.34;100.00
59757;BME280;45631;51.962;5.974;2023-12-07T07:29:04;101849.03;;;-1.33;100.00
59757;BME280;45631;51.962;5.974;2023-12-07T07:31:34;101848.16;;;-1.34;100.00
59757;BME280;45631;51.962;5.974;2023-12-07T07:34:03;101849.91;;;-1.36;100.00
59757;BME280;45631;51.962;5.974;2023-12-07T07:36:35;101843.84;;;-1.35;100.00
59757;BME280;45631;51.962;5.974;2023-12-07T07:39:03;101851.63;;;-1.33;100.00
59757;BME280;45631;51.962;5.974;2023-12-07T07:41:34;101854.19;;;-1.37;100.00
59757;BME280;45631;51.962;5.974;2023-12-07T07:44:02;101860.22;;;-1.33;100.00
59757;BME280;45631;51.962;5.974;2023-12-07T07:46:31;101861.09;;;-1.29;100.00
59757;BME280;45631;51.962;5.974;2023-12-07T07:49:00;101867.97;;;-1.33;100.00
59757;BME280;45631;51.962;5.974;2023-12-07T07:51:31;101869.69;;;-1.30;100.00
59757;BME280;45631;51.962;5.974;2023-12-07T07:54:02;101873.09;;;-1.28;100.00
59757;BME280;45631;51.962;5.974;2023-12-07T07:56:31;101878.28;;;-1.25;100.00
59757;BME280;45631;51.962;5.974;2023-12-07T07:59:02;101879.16;;;-1.31;100.00
59757;BME280;45631;51.962;5.974;2023-12-07T08:01:30;101876.56;;;-1.40;100.00
59757;BME280;45631;51.962;5.974;2023-12-07T08:04:00;101886.03;;;-1.36;100.00
59757;BME280;45631;51.962;5.974;2023-12-07T08:06:28;101888.59;;;-1.31;100.00
59757;BME280;45631;51.962;5.974;2023-12-07T08:09:01;101880.88;;;-1.33;100.00
59757;BME280;45631;51.962;5.974;2023-12-07T08:11:33;101877.44;;;-1.30;100.00
59757;BME280;45631;51.962;5.974;2023-12-07T08:14:04;101875.69;;;-1.33;100.00
59757;BME280;45631;51.962;5.974;2023-12-07T08:16:32;101868.84;;;-1.31;100.00
59757;BME280;45631;51.962;5.974;2023-12-07T08:19:04;101867.94;;;-1.30;100.00
59757;BME280;45631;51.962;5.974;2023-12-07T08:21:32;101863.66;;;-1.34;100.00
59757;BME280;45631;51.962;5.974;2023-12-07T08:24:00;101855.06;;;-1.33;100.00
59757;BME280;45631;51.962;5.974;2023-12-07T08:26:31;101873.09;;;-1.28;100.00
59757;BME280;45631;51.962;5.974;2023-12-07T08:28:59;101865.41;;;-1.27;100.00
59757;BME280;45631;51.962;5.974;2023-12-07T08:31:28;101867.13;;;-1.21;100.00
59757;BME280;45631;51.962;5.974;2023-12-07T08:33:56;101861.06;;;-1.23;100.00
59757;BME280;45631;51.962;5.974;2023-12-07T08:36:25;101861.94;;;-1.16;100.00
59757;BME280;45631;51.962;5.974;2023-12-07T08:38:54;101864.50;;;-1.13;100.00
59757;BME280;45631;51.962;5.974;2023-12-07T08:41:22;101858.47;;;-1.20;100.00
59757;BME280;45631;51.962;5.974;2023-12-07T08:43:50;101861.94;;;-1.20;100.00
59757;BME280;45631;51.962;5.974;2023-12-07T08:46:18;101862.78;;;-1.16;100.00
59757;BME280;45631;51.962;5.974;2023-12-07T08:48:50;101864.53;;;-1.18;100.00
59757;BME280;45631;51.962;5.974;2023-12-07T08:51:22;101855.03;;;-1.17;100.00
59757;BME280;45631;51.962;5.974;2023-12-07T08:53:52;101851.63;;;-1.21;100.00
59757;BME280;45631;51.962;5.974;2023-12-07T08:56:23;101850.75;;;-1.17;100.00
59757;BME280;45631;51.962;5.974;2023-12-07T08:58:52;101847.31;;;-1.19;100.00
59757;BME280;45631;51.962;5.974;2023-12-07T09:01:20;101852.47;;;-1.17;100.00
59757;BME280;45631;51.962;5.974;2023-12-07T09:03:59;101862.81;;;-1.22;100.00
59757;BME280;45631;51.962;5.974;2023-12-07T09:06:27;101864.53;;;-1.21;100.00
59757;BME280;45631;51.962;5.974;2023-12-07T09:08:56;101867.09;;;-1.29;100.00
59757;BME280;45631;51.962;5.974;2023-12-07T09:11:25;101870.53;;;-1.31;100.00
59757;BME280;45631;51.962;5.974;2023-12-07T09:13:53;101867.97;;;-1.33;100.00
59757;BME280;45631;51.962;5.974;2023-12-07T09:16:21;101866.25;;;-1.31;100.00
59757;BME280;45631;51.962;5.974;2023-12-07T09:18:49;101863.66;;;-1.32;100.00
59757;BME280;45631;51.962;5.974;2023-12-07T09:21:18;101855.06;;;-1.27;100.00
59757;BME280;45631;51.962;5.974;2023-12-07T09:23:46;101860.22;;;-1.25;100.00
59757;BME280;45631;51.962;5.974;2023-12-07T09:26:16;101871.41;;;-1.23;100.00
59757;BME280;45631;51.962;5.974;2023-12-07T09:28:46;101866.22;;;-1.23;100.00
59757;BME280;45631;51.962;5.974;2023-12-07T09:31:14;101867.09;;;-1.26;100.00
59757;BME280;45631;51.962;5.974;2023-12-07T09:33:44;101854.22;;;-1.21;100.00
59757;BME280;45631;51.962;5.974;2023-12-07T09:36:16;101852.47;;;-1.17;100.00
59757;BME280;45631;51.962;5.974;2023-12-07T09:38:45;101855.06;;;-1.11;100.00
59757;BME280;45631;51.962;5.974;2023-12-07T09:41:13;101850.75;;;-1.12;100.00
59757;BME280;45631;51.962;5.974;2023-12-07T09:43:43;101851.63;;;-1.07;100.00
59757;BME280;45631;51.962;5.974;2023-12-07T09:46:14;101846.44;;;-1.06;100.00
59757;BME280;45631;51.962;5.974;2023-12-07T09:48:43;101848.19;;;-1.08;100.00
59757;BME280;45631;51.962;5.974;2023-12-07T09:51:13;101853.34;;;-1.15;100.00
59757;BME280;45631;51.962;5.974;2023-12-07T09:53:43;101848.16;;;-1.12;100.00
59757;BME280;45631;51.962;5.974;2023-12-07T09:56:13;101846.44;;;-1.06;100.00
59757;BME280;45631;51.962;5.974;2023-12-07T09:58:43;101844.72;;;-1.04;100.00
59757;BME280;45631;51.962;5.974;2023-12-07T10:01:11;101843.88;;;-1.07;100.00
59757;BME280;45631;51.962;5.974;2023-12-07T10:03:42;101837.84;;;-1.03;100.00
59757;BME280;45631;51.962;5.974;2023-12-07T10:06:11;101831.81;;;-1.02;100.00
59757;BME280;45631;51.962;5.974;2023-12-07T10:08:40;101836.97;;;-0.97;100.00
59757;BME280;45631;51.962;5.974;2023-12-07T10:11:09;101839.53;;;-0.94;100.00
59757;BME280;45631;51.962;5.974;2023-12-07T10:13:39;101843.84;;;-0.96;100.00
59757;BME280;45631;51.962;5.974;2023-12-07T10:16:11;101836.09;;;-0.93;100.00
59757;BME280;45631;51.962;5.974;2023-12-07T10:18:41;101828.34;;;-0.90;100.00
59757;BME280;45631;51.962;5.974;2023-12-07T10:21:14;101824.88;;;-0.88;100.00
59757;BME280;45631;51.962;5.974;2023-12-07T10:23:43;101815.41;;;-0.82;100.00
59757;BME280;45631;51.962;5.974;2023-12-07T10:26:16;101811.97;;;-0.78;100.00
59757;BME280;45631;51.962;5.974;2023-12-07T10:28:49;101809.34;;;-0.74;100.00
59757;BME280;45631;51.962;5.974;2023-12-07T10:31:22;101796.47;;;-0.78;100.00
59757;BME280;45631;51.962;5.974;2023-12-07T10:33:51;101797.28;;;-0.69;100.00
59757;BME280;45631;51.962;5.974;2023-12-07T10:36:19;101793.84;;;-0.69;100.00
59757;BME280;45631;51.962;5.974;2023-12-07T10:38:50;101798.13;;;-0.62;100.00
59757;BME280;45631;51.962;5.974;2023-12-07T10:41:19;101791.25;;;-0.60;100.00
59757;BME280;45631;51.962;5.974;2023-12-07T10:43:49;101780.91;;;-0.60;100.00
59757;BME280;45631;51.962;5.974;2023-12-07T10:46:21;101784.31;;;-0.52;100.00
59757;BME280;45631;51.962;5.974;2023-12-07T10:48:54;101779.97;;;-0.48;100.00
59757;BME280;45631;51.962;5.974;2023-12-07T10:51:29;101772.25;;;-0.49;100.00
59757;BME280;45631;51.962;5.974;2023-12-07T10:54:01;101761.03;;;-0.45;100.00
59757;BME280;45631;51.962;5.974;2023-12-07T10:56:37;101754.97;;;-0.38;100.00
59757;BME280;45631;51.962;5.974;2023-12-07T10:59:09;101751.47;;;-0.31;100.00
59757;BME280;45631;51.962;5.974;2023-12-07T11:01:48;101748.03;;;-0.30;100.00
59757;BME280;45631;51.962;5.974;2023-12-07T11:04:16;101742.88;;;-0.35;100.00
59757;BME280;45631;51.962;5.974;2023-12-07T11:06:48;101734.25;;;-0.32;100.00
59757;BME280;45631;51.962;5.974;2023-12-07T11:09:29;101730.75;;;-0.22;100.00
59757;BME280;45631;51.962;5.974;2023-12-07T11:12:02;101729.88;;;-0.22;100.00
59757;BME280;45631;51.962;5.974;2023-12-07T11:14:33;101719.53;;;-0.24;100.00
59757;BME280;45631;51.962;5.974;2023-12-07T11:17:03;101713.50;;;-0.20;100.00
59757;BME280;45631;51.962;5.974;2023-12-07T11:19:49;101709.13;;;-0.13;100.00
59757;BME280;45631;51.962;5.974;2023-12-07T11:22:18;101703.06;;;-0.07;100.00
59757;BME280;45631;51.962;5.974;2023-12-07T11:24:54;101703.06;;;-0.07;100.00
59757;BME280;45631;51.962;5.974;2023-12-07T11:27:24;101708.13;;;0.08;100.00
59757;BME280;45631;51.962;5.974;2023-12-07T11:29:53;101696.88;;;0.11;100.00
59757;BME280;45631;51.962;5.974;2023-12-07T11:32:26;101697.69;;;0.17;100.00
59757;BME280;45631;51.962;5.974;2023-12-07T11:35:01;101693.34;;;0.23;100.00
59757;BME280;45631;51.962;5.974;2023-12-07T11:38:00;101695.03;;;0.27;100.00
59757;BME280;45631;51.962;5.974;2023-12-07T11:40:30;101697.59;;;0.30;100.00
59757;BME280;45631;51.962;5.974;2023-12-07T11:43:00;101694.97;;;0.36;100.00
59757;BME280;45631;51.962;5.974;2023-12-07T11:45:41;101690.63;;;0.40;100.00
59757;BME280;45631;51.962;5.974;2023-12-07T11:48:13;101697.47;;;0.45;100.00
59757;BME280;45631;51.962;5.974;2023-12-07T11:51:08;101678.47;;;0.46;100.00
59757;BME280;45631;51.962;5.974;2023-12-07T11:53:38;101678.44;;;0.49;100.00
59757;BME280;45631;51.962;5.974;2023-12-07T11:56:08;101684.44;;;0.52;100.00
59757;BME280;45631;51.962;5.974;2023-12-07T11:58:37;101673.16;;;0.60;100.00
59757;BME280;45631;51.962;5.974;2023-12-07T12:01:07;101673.16;;;0.62;100.00
59757;BME280;45631;51.962;5.974;2023-12-07T12:03:38;101674.06;;;0.56;100.00
59757;BME280;45631;51.962;5.974;2023-12-07T12:06:07;101669.69;;;0.61;100.00
59757;BME280;45631;51.962;5.974;2023-12-07T12:08:40;101662.81;;;0.60;100.00
59757;BME280;45631;51.962;5.974;2023-12-07T12:11:08;101660.19;;;0.62;100.00
59757;BME280;45631;51.962;5.974;2023-12-07T12:13:37;101655.88;;;0.61;100.00
59757;BME280;45631;51.962;5.974;2023-12-07T12:16:07;101654.06;;;0.69;100.00
59757;BME280;45631;51.962;5.974;2023-12-07T12:18:37;101655.75;;;0.73;100.00
59757;BME280;45631;51.962;5.974;2023-12-07T12:21:07;101637.66;;;0.72;100.00
59757;BME280;45631;51.962;5.974;2023-12-07T12:23:37;101630.66;;;0.80;100.00
59757;BME280;45631;51.962;5.974;2023-12-07T12:26:07;101635.88;;;0.75;100.00
59757;BME280;45631;51.962;5.974;2023-12-07T12:28:38;101626.41;;;0.74;100.00
59757;BME280;45631;51.962;5.974;2023-12-07T12:31:11;101624.69;;;0.73;100.00
59757;BME280;45631;51.962;5.974;2023-12-07T12:33:42;101610.91;;;0.71;100.00
59757;BME280;45631;51.962;5.974;2023-12-07T12:36:10;101601.47;;;0.67;100.00
59757;BME280;45631;51.962;5.974;2023-12-07T12:38:39;101605.78;;;0.65;100.00
59757;BME280;45631;51.962;5.974;2023-12-07T12:41:18;101607.50;;;0.66;100.00
59757;BME280;45631;51.962;5.974;2023-12-07T12:43:46;101604.00;;;0.70;100.00
59757;BME280;45631;51.962;5.974;2023-12-07T12:46:18;101603.97;;;0.73;100.00
59757;BME280;45631;51.962;5.974;2023-12-07T12:48:54;101597.06;;;0.72;100.00
59757;BME280;45631;51.962;5.974;2023-12-07T12:51:24;101596.16;;;0.76;100.00
59757;BME280;45631;51.962;5.974;2023-12-07T12:53:54;101597.06;;;0.72;100.00